Novi HR Speed Test Log

Averages  Max Speed    
1 to 25 of 1507** for City Novi HR
Time
  
  Speed   Provider Size    User ConnectID   TestID  
6/2/16 8:00:14 am 918 kbps 115 kB/sNovi Net Doo 1.3 MB4239420416527 gdAc52OT0 
5/30/16 10:23:23 pm 412 kbps 52 kB/sNovi Net Doo 1.3 MB423942041998 f9o2Tmhqe 
5/30/16 10:22:48 pm 5.38 Mbps 673 kB/sNovi Net Doo 6.4 MB423942041998 8qVybzfPQ 
5/30/16 10:03:20 pm 269 kbps 34 kB/sNovi Net Doo 320 kB423942041998 wNLgUYZBC 
5/30/16 10:02:58 pm 681 kbps 85 kB/sNovi Net Doo 2.1 MB423942041998 XqWKNsQth 
5/30/16 9:52:36 pm 307 kbps 38 kB/sNovi Net Doo 256 kB423942041998 IXNOl1xP8 
5/30/16 9:52:27 pm 1.43 Mbps 178 kB/sNovi Net Doo 6.4 MB423942041998 1iw7rgzZu 
5/30/16 9:22:23 pm 669 kbps 84 kB/sNovi Net Doo 664 kB423942041998 6jMN57IPY 
5/30/16 9:22:01 pm 3.14 Mbps 393 kB/sNovi Net Doo 6.1 MB423942041998 i7oRdwHOI 
5/30/16 8:56:04 pm 407 kbps 51 kB/sNovi Net Doo 1.3 MB423942041998 4JZUS7tRl 
5/30/16 8:55:24 pm 2 Mbps 249 kB/sNovi Net Doo 44.5 MB423942041998 ACJ6Z7gr4 
5/29/16 5:44:09 pm 718 kbps 90 kB/sNovi Net Doo 1 MB4239420415885 AmknuiH9y 
5/29/16 5:43:48 pm 4.4 Mbps 550 kB/sNovi Net Doo 6.3 MB4239420415885 PAjgZ6owt 
5/29/16 12:31:09 pm 838 kbps 105 kB/sNovi Net Doo 1.2 MB4239420415885 Ti5kF3MjX 
5/29/16 12:30:49 pm 4.8 Mbps 600 kB/sNovi Net Doo 6.2 MB4239420415885 90KiayebD 
5/29/16 12:01:25 pm 153 kbps 19 kB/sNovi Net Doo 256 kB4239420415885 Py7NiScC3 
5/29/16 12:01:10 pm 2.95 Mbps 369 kB/sNovi Net Doo 6.3 MB4239420415885 d3AEtg6nG 
5/27/16 2:56:47 pm 682 kbps 85 kB/sNovi Net Doo 512 kB4239420407265 ihGxXVgI2 
5/27/16 2:56:38 pm 775 kbps 97 kB/sNovi Net Doo 3.3 MB4239420407265 db86Hl5F9 
5/27/16 2:52:26 pm 754 kbps 94 kB/sNovi Net Doo 1.1 MB4239420407265 PTi4BgEZ7 
5/27/16 2:52:05 pm 2.85 Mbps 357 kB/sNovi Net Doo 6.3 MB4239420407265 c84BhbVgP 
5/27/16 2:46:17 pm 649 kbps 81 kB/sNovi Net Doo 448 kB4239420407265 PZ7lD60tp 
5/27/16 2:46:09 pm 1.48 Mbps 185 kB/sNovi Net Doo 5.8 MB4239420407265 8ResuGyKY 
5/27/16 2:35:34 pm 488 kbps 61 kB/sNovi Net Doo 1.2 MB4239420407265 ahBmeRpWK 
5/27/16 2:35:06 pm 5.97 Mbps 746 kB/sNovi Net Doo 6.2 MB4239420407265 Hvbi9Dd5X 
  
** Partial Results: The most recent results have been displayed. Results over 50 Mbps are highlighted.
Calculated from graphed results above not entire query.
Displaying Internet Speed Test results for City Novi HR

Minimum

Min 0.68 Mbps : 0.15 Mbps

Average

Avg 2.83 Mbps : 0.53 Mbps

Maximum

Max 5.97 Mbps : 0.84 Mbps

Minimum

Min: 0.68 Mbps : 0.15 Mbps |

Average

Avg: 2.83 Mbps : 0.53 Mbps |

Maximum

Max: 5.97 Mbps : 0.84 Mbps